Time;durP1;ratioP1;P1;durP2;ratioP2;P2;SDS_P1;SDS_P2;PMS_P1;PMS_P2;Temp;Humidity;BMP_temperature;BMP_pressure;BME280_temperature;BME280_humidity;BME280_pressure;Samples;Min_cycle;Max_cycle;Signal;HPM_P1;HPM_P2
2023/09/02 00:01:58;;;;;;;12.60;7.28;;;;;;;19.00;74.55;94975.91;4994447;28;20205;-75
2023/09/02 00:04:25;;;;;;;13.77;7.35;;;;;;;18.99;74.96;94975.16;4994964;28;20649;-75
2023/09/02 00:06:52;;;;;;;10.95;7.82;;;;;;;18.98;74.92;94981.03;4994427;28;20216;-75
2023/09/02 00:09:19;;;;;;;9.52;7.07;;;;;;;18.85;74.89;94988.69;4995136;28;20554;-75
2023/09/02 00:11:47;;;;;;;10.82;7.20;;;;;;;18.84;74.86;94992.59;4994308;28;20202;-75
2023/09/02 00:14:14;;;;;;;11.35;8.05;;;;;;;18.81;75.02;94987.84;4994151;28;20241;-75
2023/09/02 00:16:40;;;;;;;9.73;7.22;;;;;;;18.73;75.03;94991.63;4994360;28;20245;-75
2023/09/02 00:19:07;;;;;;;12.13;7.85;;;;;;;18.64;75.52;94988.38;4994125;28;20217;-75
2023/09/02 00:21:34;;;;;;;9.60;6.68;;;;;;;18.57;76.09;94971.78;4994662;28;20206;-75
2023/09/02 00:24:02;;;;;;;10.82;7.28;;;;;;;18.44;76.36;94980.25;4994008;28;20212;-75
2023/09/02 00:26:30;;;;;;;9.43;6.82;;;;;;;18.46;76.39;94972.41;4994536;28;20213;-75
2023/09/02 00:28:58;;;;;;;11.75;7.97;;;;;;;18.46;75.96;94982.59;4994118;28;20228;-75
2023/09/02 00:31:26;;;;;;;9.63;7.47;;;;;;;18.46;75.86;94983.38;4994245;28;20206;-75
2023/09/02 00:33:53;;;;;;;12.18;7.50;;;;;;;18.41;76.42;94980.97;4993933;28;20222;-75
2023/09/02 00:36:20;;;;;;;13.02;7.20;;;;;;;18.41;76.28;94980.97;4994353;28;20210;-75
2023/09/02 00:38:47;;;;;;;9.02;6.95;;;;;;;18.34;76.35;94989.06;4994463;28;20995;-75
2023/09/02 00:41:22;;;;;;;9.98;7.75;;;;;;;18.31;77.05;94984.31;4994096;28;20206;-75
2023/09/02 00:43:48;;;;;;;10.38;7.40;;;;;;;18.22;77.00;94988.47;4994265;28;20256;-75
2023/09/02 00:46:17;;;;;;;9.93;7.25;;;;;;;18.10;77.57;94986.72;4994132;28;20622;-75
2023/09/02 00:48:43;;;;;;;12.90;7.88;;;;;;;18.10;77.85;94986.72;4993738;28;20272;-75
2023/09/02 00:51:10;;;;;;;10.27;7.00;;;;;;;18.09;77.97;94996.09;4993905;28;20202;-75
2023/09/02 00:53:37;;;;;;;12.00;7.35;;;;;;;18.11;77.75;94993.78;4993592;28;20229;-75
2023/09/02 00:56:04;;;;;;;12.40;7.85;;;;;;;18.02;77.91;94990.50;4993322;28;20209;-75
2023/09/02 00:58:32;;;;;;;11.20;7.38;;;;;;;17.96;78.22;94990.00;4993921;28;20260;-75
2023/09/02 01:01:00;;;;;;;11.38;7.50;;;;;;;17.94;78.17;94988.78;4993344;28;20202;-75
2023/09/02 01:03:29;;;;;;;9.57;7.00;;;;;;;17.85;78.72;94989.03;4993590;28;20265;-75
2023/09/02 01:05:57;;;;;;;10.05;7.72;;;;;;;17.81;78.62;94981.91;4993743;28;20240;-75
2023/09/02 01:08:24;;;;;;;9.02;7.18;;;;;;;17.77;79.12;94983.81;4993490;28;20213;-75
2023/09/02 01:10:52;;;;;;;12.30;7.28;;;;;;;17.72;79.36;94985.69;4993629;28;20545;-75
2023/09/02 01:13:18;;;;;;;8.77;7.00;;;;;;;17.70;79.55;94982.50;4993259;28;20233;-75
2023/09/02 01:15:45;;;;;;;10.70;7.43;;;;;;;17.74;79.16;94986.13;4993349;28;20682;-75
2023/09/02 01:18:12;;;;;;;11.18;6.70;;;;;;;17.70;79.06;94985.25;4993247;28;20190;-75
2023/09/02 01:21:03;;;;;;;9.77;7.47;;;;;;;17.66;78.93;94976.16;4993315;28;20260;-75
2023/09/02 01:23:56;;;;;;;9.30;6.43;;;;;;;17.64;79.21;94991.38;4993787;28;20649;-75
2023/09/02 01:26:40;;;;;;;10.50;6.47;;;;;;;17.59;80.08;94983.44;4993354;28;20239;-75
2023/09/02 01:29:12;;;;;;;11.65;7.60;;;;;;;17.56;79.98;94989.66;4993134;28;20597;-75
2023/09/02 01:31:40;;;;;;;11.13;6.97;;;;;;;17.58;79.86;94985.41;4993193;28;20256;-75
2023/09/02 01:34:11;;;;;;;10.25;7.75;;;;;;;17.52;80.14;94992.31;4992911;28;20588;-75
2023/09/02 01:36:40;;;;;;;11.68;7.65;;;;;;;17.42;80.32;94990.97;4992891;28;20565;-75
2023/09/02 01:39:09;;;;;;;12.13;7.78;;;;;;;17.44;80.11;94992.56;4992956;28;20555;-75
2023/09/02 01:41:36;;;;;;;10.80;7.40;;;;;;;17.41;80.18;94994.06;4993196;28;20202;-75
2023/09/02 01:44:04;;;;;;;9.35;6.75;;;;;;;17.41;80.36;94999.53;4992611;28;20276;-75
2023/09/02 01:46:32;;;;;;;11.65;7.45;;;;;;;17.40;80.85;94997.94;4993160;28;20641;-75
2023/09/02 01:49:00;;;;;;;9.25;7.00;;;;;;;17.35;81.03;94996.31;4992888;28;20206;-75
2023/09/02 01:51:27;;;;;;;10.85;7.07;;;;;;;17.31;81.46;94994.66;4993185;28;20206;-75
2023/09/02 01:53:54;;;;;;;11.20;7.22;;;;;;;17.30;80.89;94993.84;4992807;28;20620;-75
2023/09/02 01:56:21;;;;;;;10.25;7.53;;;;;;;17.24;81.50;94997.22;4992511;28;20210;-75
2023/09/02 01:58:49;;;;;;;10.98;7.18;;;;;;;17.28;81.36;94996.16;4992682;28;20205;-75
2023/09/02 02:01:16;;;;;;;11.82;7.18;;;;;;;17.19;81.56;94998.34;4992049;28;20208;-75
2023/09/02 02:03:52;;;;;;;12.32;6.95;;;;;;;17.25;80.90;95001.56;4992505;28;20206;-75
2023/09/02 02:06:23;;;;;;;13.18;6.90;;;;;;;17.26;80.74;95003.16;4992142;28;20209;-74
2023/09/02 02:08:56;;;;;;;9.73;6.57;;;;;;;17.25;80.86;95012.50;4992350;28;20189;-75
2023/09/02 02:11:25;;;;;;;10.60;6.55;;;;;;;17.24;80.36;95005.44;4992276;28;20197;-75
2023/09/02 02:13:51;;;;;;;13.23;7.78;;;;;;;17.27;80.85;95008.25;4992424;28;20575;-75
2023/09/02 02:16:22;;;;;;;8.50;6.28;;;;;;;17.27;80.16;95007.47;4991891;28;20450;-75
2023/09/02 02:18:50;;;;;;;10.38;6.90;;;;;;;17.26;79.58;95009.41;4992336;28;20590;-75
2023/09/02 02:21:17;;;;;;;10.10;6.70;;;;;;;17.27;80.04;95010.22;4991369;28;20280;-75
2023/09/02 02:23:45;;;;;;;10.52;6.60;;;;;;;17.21;80.28;95006.19;4992239;28;20212;-75
2023/09/02 02:26:12;;;;;;;11.55;7.70;;;;;;;17.17;81.27;95006.09;4991784;28;20206;-75
2023/09/02 02:28:39;;;;;;;11.48;7.45;;;;;;;17.09;81.17;95004.34;4992292;28;20220;-75
2023/09/02 02:31:06;;;;;;;11.10;7.45;;;;;;;17.02;81.54;95015.16;4992303;28;20209;-75
2023/09/02 02:33:33;;;;;;;10.70;7.40;;;;;;;17.03;81.72;95023.03;4992026;28;20213;-75
2023/09/02 02:36:01;;;;;;;10.95;6.32;;;;;;;16.99;81.54;95021.34;4991423;28;20233;-75
2023/09/02 02:38:28;;;;;;;9.88;6.90;;;;;;;17.05;81.41;95009.78;4991992;28;20230;-75
2023/09/02 02:40:55;;;;;;;9.43;6.40;;;;;;;17.00;81.61;95003.78;4991670;28;20210;-75
2023/09/02 02:43:25;;;;;;;9.65;6.90;;;;;;;17.00;81.14;95007.31;4992003;28;20209;-75
2023/09/02 02:45:52;;;;;;;11.68;7.25;;;;;;;17.00;80.80;95003.78;4992068;28;20671;-75
2023/09/02 02:48:18;;;;;;;11.02;7.22;;;;;;;17.02;81.63;95004.22;4991940;28;20624;-75
2023/09/02 02:50:45;;;;;;;10.18;7.82;;;;;;;17.04;81.96;95002.72;4991913;28;20597;-75
2023/09/02 02:53:13;;;;;;;11.85;7.35;;;;;;;16.94;82.96;95003.28;4991899;28;20727;-75
2023/09/02 02:55:41;;;;;;;10.70;6.70;;;;;;;16.95;83.23;95010.31;4991504;28;20284;-75
2023/09/02 02:58:08;;;;;;;9.10;6.70;;;;;;;16.85;82.90;95005.44;4991854;28;20205;-75
2023/09/02 03:00:35;;;;;;;11.07;7.65;;;;;;;16.84;83.45;95009.31;4991706;28;20207;-75
2023/09/02 03:03:03;;;;;;;10.63;7.10;;;;;;;16.88;83.80;95010.19;4991704;28;20786;-75
2023/09/02 03:05:29;;;;;;;16.38;8.68;;;;;;;16.90;83.95;95013.38;4991576;28;20693;-75
2023/09/02 03:07:56;;;;;;;10.82;7.50;;;;;;;16.87;83.62;95011.34;4991965;28;20749;-75
2023/09/02 03:10:24;;;;;;;12.10;8.20;;;;;;;16.82;83.49;95011.59;4991299;28;20209;-75
2023/09/02 03:12:51;;;;;;;12.43;7.97;;;;;;;16.84;83.39;95020.25;4991831;28;20622;-75
2023/09/02 03:15:18;;;;;;;11.60;7.30;;;;;;;16.80;83.35;95018.63;4991381;28;20229;-75
2023/09/02 03:17:45;;;;;;;10.63;7.53;;;;;;;16.71;83.54;95021.53;4991466;28;20190;-75
2023/09/02 03:20:12;;;;;;;12.48;8.13;;;;;;;16.73;83.81;95024.69;4991272;28;20205;-75
2023/09/02 03:22:41;;;;;;;11.25;7.78;;;;;;;16.67;84.34;95020.69;4991055;28;20444;-75
2023/09/02 03:25:09;;;;;;;10.80;8.10;;;;;;;16.62;84.50;95029.13;4991391;28;20233;-75
2023/09/02 03:27:38;;;;;;;10.80;7.78;;;;;;;16.63;84.57;95025.25;4991092;28;20212;-75
2023/09/02 03:30:06;;;;;;;10.77;7.30;;;;;;;16.62;84.33;95018.16;4990960;28;20201;-75
2023/09/02 03:32:34;;;;;;;11.88;7.72;;;;;;;16.56;84.83;95023.13;4993916;28;20201;-75
2023/09/02 03:35:00;;;;;;;12.02;7.50;;;;;;;16.54;85.00;95013.66;4994997;28;20225;-75
2023/09/02 03:37:27;;;;;;;11.52;7.45;;;;;;;16.61;84.81;95022.06;4995176;28;20609;-75
2023/09/02 03:39:54;;;;;;;11.15;7.63;;;;;;;16.59;84.81;95024.34;4995574;28;20260;-75
2023/09/02 03:42:21;;;;;;;11.25;6.75;;;;;;;16.56;84.40;95019.59;4994976;28;20633;-75
2023/09/02 03:44:50;;;;;;;10.68;7.28;;;;;;;16.59;84.25;95024.34;4995058;28;20202;-75
2023/09/02 03:47:16;;;;;;;10.48;6.93;;;;;;;16.55;84.59;95029.72;4995246;28;20580;-75
2023/09/02 03:49:43;;;;;;;12.73;6.65;;;;;;;16.53;84.35;95018.38;4995285;28;20610;-75
2023/09/02 03:52:10;;;;;;;11.63;7.72;;;;;;;16.54;84.21;95021.88;4994648;28;20221;-75
2023/09/02 03:54:38;;;;;;;13.20;7.03;;;;;;;16.55;84.29;95023.47;4994804;28;20230;-75
2023/09/02 03:57:05;;;;;;;10.60;7.05;;;;;;;16.50;84.23;95027.28;4994805;28;20206;-75
2023/09/02 03:59:32;;;;;;;10.13;7.22;;;;;;;16.54;83.99;95027.34;4995138;28;20206;-76
2023/09/02 04:02:00;;;;;;;10.95;6.85;;;;;;;16.67;84.12;95026.16;4994658;28;20285;-75
2023/09/02 04:04:27;;;;;;;8.93;6.80;;;;;;;16.80;83.34;95035.81;4995200;28;20545;-75
2023/09/02 04:06:53;;;;;;;10.38;6.70;;;;;;;16.82;82.92;95028.03;4994632;28;20213;-75
2023/09/02 04:09:20;;;;;;;13.85;7.03;;;;;;;16.89;82.65;95033.66;4995012;28;20584;-75
2023/09/02 04:11:47;;;;;;;11.70;7.13;;;;;;;16.88;82.49;95037.56;4994921;28;20260;-75
2023/09/02 04:14:14;;;;;;;9.90;6.78;;;;;;;17.01;81.91;95025.31;4994481;28;20233;-75
2023/09/02 04:16:41;;;;;;;11.05;6.60;;;;;;;17.56;80.27;95026.06;4994409;28;20241;-75
2023/09/02 04:19:09;;;;;;;11.15;7.15;;;;;;;18.10;78.16;95027.84;4994624;28;20598;-75
2023/09/02 04:21:36;;;;;;;9.35;6.43;;;;;;;18.33;76.34;95028.63;4994837;28;20320;-75
2023/09/02 04:24:02;;;;;;;8.75;6.47;;;;;;;18.77;74.95;95025.44;4994505;28;20217;-74
2023/09/02 04:26:29;;;;;;;9.30;6.60;;;;;;;19.17;73.44;95017.34;4994612;28;20217;-74
2023/09/02 04:28:56;;;;;;;10.27;6.57;;;;;;;19.85;70.84;95029.97;4994547;28;20209;-75
2023/09/02 04:31:23;;;;;;;11.38;6.57;;;;;;;20.20;69.45;95031.50;4994330;28;20693;-74
2023/09/02 04:33:50;;;;;;;10.10;6.43;;;;;;;20.54;68.42;95026.69;4994304;28;20209;-74
2023/09/02 04:36:18;;;;;;;11.25;7.20;;;;;;;21.17;66.40;95031.88;4994400;28;20280;-75
2023/09/02 04:38:45;;;;;;;12.38;6.65;;;;;;;21.74;63.82;95021.09;4994377;28;20205;-75
2023/09/02 04:41:12;;;;;;;10.27;6.55;;;;;;;22.35;61.87;95022.03;4994293;28;20536;-75
2023/09/02 04:43:39;;;;;;;10.02;8.40;;;;;;;22.89;60.08;95022.84;4993743;28;20633;-75
2023/09/02 04:46:08;;;;;;;10.32;7.32;;;;;;;23.12;59.42;95025.97;4994023;28;20201;-75
2023/09/02 04:48:34;;;;;;;9.52;7.10;;;;;;;23.28;59.04;95018.03;4994544;28;20201;-75
2023/09/02 04:51:03;;;;;;;12.73;10.63;;;;;;;23.50;58.80;95017.97;4994175;28;20217;-75
2023/09/02 04:53:31;;;;;;;11.77;9.30;;;;;;;23.88;58.01;95028.09;4994058;28;20301;-75
2023/09/02 04:56:00;;;;;;;13.07;9.55;;;;;;;24.19;57.20;95031.09;4994188;28;20591;-76
2023/09/02 04:58:27;;;;;;;13.38;10.02;;;;;;;24.48;55.72;95026.94;4994020;28;20206;-75
2023/09/02 05:00:54;;;;;;;12.20;9.32;;;;;;;24.79;54.74;95028.69;4993721;28;20198;-76
2023/09/02 05:03:21;;;;;;;13.05;9.93;;;;;;;25.00;54.66;95027.75;4993541;28;20348;-76
2023/09/02 05:05:48;;;;;;;13.90;10.80;;;;;;;24.89;53.95;95029.00;4994135;28;20610;-76
2023/09/02 05:08:14;;;;;;;11.65;8.70;;;;;;;24.21;55.95;95028.69;4993631;28;20609;-77
2023/09/02 05:10:42;;;;;;;12.73;9.40;;;;;;;25.14;54.02;95030.38;4993683;28;20205;-76
2023/09/02 05:13:09;;;;;;;14.25;9.40;;;;;;;25.80;51.77;95032.84;4993654;28;20613;-76
2023/09/02 05:15:36;;;;;;;15.20;11.32;;;;;;;25.79;51.62;95033.25;4993995;28;20545;-76
2023/09/02 05:18:03;;;;;;;12.95;10.50;;;;;;;26.33;49.61;95030.56;4993623;28;20229;-76
2023/09/02 05:20:30;;;;;;;11.52;10.25;;;;;;;26.52;49.53;95021.53;4993385;28;20221;-76
2023/09/02 05:22:57;;;;;;;12.10;10.80;;;;;;;26.65;48.79;95030.09;4993619;28;20565;-76
2023/09/02 05:25:27;;;;;;;13.75;10.45;;;;;;;26.75;49.11;95035.47;4993439;28;20659;-76
2023/09/02 05:27:55;;;;;;;10.38;8.60;;;;;;;27.47;47.05;95035.78;4993166;28;20217;-76
2023/09/02 05:30:22;;;;;;;14.43;11.15;;;;;;;27.57;46.35;95022.94;4993096;28;20646;-76
2023/09/02 05:32:48;;;;;;;12.55;10.45;;;;;;;27.20;47.78;95029.53;4993214;28;20217;-76
2023/09/02 05:35:15;;;;;;;12.27;10.52;;;;;;;27.72;46.64;95029.00;4992952;28;20226;-76
2023/09/02 05:37:42;;;;;;;13.20;10.57;;;;;;;28.25;45.60;95028.69;4993126;28;20209;-76
2023/09/02 05:40:10;;;;;;;15.98;10.90;;;;;;;28.95;43.98;95022.69;4992735;28;20256;-76
2023/09/02 05:42:37;;;;;;;13.35;11.02;;;;;;;28.75;44.07;95021.94;4993396;28;20725;-76
2023/09/02 05:45:06;;;;;;;13.15;11.02;;;;;;;28.05;44.73;95027.91;4993183;28;20202;-76
2023/09/02 05:47:33;;;;;;;13.85;10.48;;;;;;;28.80;43.72;95027.03;4992922;28;20213;-76
2023/09/02 05:50:00;;;;;;;11.27;9.65;;;;;;;28.47;44.27;95033.78;4993358;28;20575;-79
2023/09/02 05:52:27;;;;;;;11.30;9.73;;;;;;;28.95;42.92;95031.06;4992461;28;20205;-79
2023/09/02 05:54:54;;;;;;;11.65;10.45;;;;;;;28.35;43.94;95040.03;4992078;28;20609;-78
2023/09/02 05:57:21;;;;;;;10.98;9.75;;;;;;;28.05;44.68;95033.47;4992514;28;20210;-78
2023/09/02 05:59:47;;;;;;;12.95;10.15;;;;;;;28.80;43.90;95024.25;4992865;28;20205;-78
2023/09/02 06:02:16;;;;;;;11.77;10.50;;;;;;;28.84;43.60;95044.47;4992666;28;20210;-79
2023/09/02 06:04:42;;;;;;;12.77;9.73;;;;;;;29.19;42.56;95039.22;4993044;28;20214;-79
2023/09/02 06:07:09;;;;;;;11.25;9.48;;;;;;;29.76;41.89;95043.31;4991983;28;20210;-79
2023/09/02 06:09:36;;;;;;;10.52;9.43;;;;;;;28.45;43.13;95037.00;4992542;28;20611;-77
2023/09/02 06:12:03;;;;;;;10.85;9.75;;;;;;;28.04;44.57;95048.63;4992377;28;20214;-79
2023/09/02 06:14:30;;;;;;;11.07;9.68;;;;;;;29.80;41.38;95044.75;4992530;28;20225;-79
2023/09/02 06:16:57;;;;;;;10.10;8.80;;;;;;;30.35;39.90;95046.38;4992273;28;20237;-80
2023/09/02 06:19:26;;;;;;;11.93;9.18;;;;;;;30.77;39.34;95042.72;4992140;28;20213;-79
2023/09/02 06:21:53;;;;;;;10.98;8.82;;;;;;;30.29;40.16;95045.38;4992229;28;20614;-79
2023/09/02 06:24:20;;;;;;;15.68;9.13;;;;;;;30.34;40.27;95046.84;4992196;28;20745;-79
2023/09/02 06:26:46;;;;;;;10.35;8.20;;;;;;;30.75;39.53;95051.59;4992384;28;20260;-79
2023/09/02 06:29:13;;;;;;;11.45;8.82;;;;;;;30.87;38.68;95039.59;4992160;28;20206;-79
2023/09/02 06:31:40;;;;;;;10.07;9.07;;;;;;;31.99;37.39;95035.34;4992213;28;20551;-79
2023/09/02 06:34:06;;;;;;;11.38;9.05;;;;;;;31.46;37.26;95043.63;4991997;28;20221;-79
2023/09/02 06:36:36;;;;;;;12.38;9.88;;;;;;;29.19;40.96;95050.38;4991898;28;20228;-78
2023/09/02 06:39:03;;;;;;;9.98;8.98;;;;;;;28.54;42.43;95059.50;4991905;28;20300;-78
2023/09/02 06:41:30;;;;;;;9.30;8.30;;;;;;;29.37;40.69;95050.72;4991832;28;20206;-79
2023/09/02 06:43:57;;;;;;;9.20;8.30;;;;;;;29.61;40.27;95049.28;4992068;28;20264;-79
2023/09/02 06:46:24;;;;;;;8.73;7.50;;;;;;;30.04;39.21;95053.72;4992128;28;20216;-79
2023/09/02 06:48:51;;;;;;;8.98;7.93;;;;;;;31.34;37.60;95042.44;4992232;28;20740;-80
2023/09/02 06:51:18;;;;;;;11.45;8.02;;;;;;;31.37;37.13;95040.75;4992067;28;20206;-79
2023/09/02 06:53:46;;;;;;;8.70;7.85;;;;;;;32.53;35.12;95045.38;4991833;28;20202;-79
2023/09/02 06:56:13;;;;;;;9.02;8.13;;;;;;;32.15;35.72;95041.53;4991659;28;20614;-79
2023/09/02 06:58:41;;;;;;;9.43;8.38;;;;;;;31.77;36.12;95044.56;4991937;28;20635;-80
2023/09/02 07:01:15;;;;;;;10.50;8.50;;;;;;;30.80;37.47;95047.41;4992157;28;20197;-79
2023/09/02 07:03:42;;;;;;;8.48;7.55;;;;;;;30.79;37.96;95052.22;4992041;28;20609;-80
2023/09/02 07:06:08;;;;;;;12.45;8.27;;;;;;;31.66;36.59;95041.34;4991492;28;20674;-79
2023/09/02 07:08:35;;;;;;;10.00;8.10;;;;;;;31.13;37.06;95050.78;4992011;28;20233;-80
2023/09/02 07:11:05;;;;;;;9.48;7.55;;;;;;;31.01;37.89;95050.31;4991530;28;20260;-80
2023/09/02 07:13:32;;;;;;;10.55;8.43;;;;;;;31.11;37.98;95047.66;4991458;28;20229;-80
2023/09/02 07:16:00;;;;;;;8.25;7.45;;;;;;;31.09;37.08;95048.88;4991662;28;20646;-80
2023/09/02 07:18:27;;;;;;;9.88;8.40;;;;;;;31.78;36.43;95043.31;4991762;28;20241;-80
2023/09/02 07:20:58;;;;;;;8.75;7.85;;;;;;;31.64;36.37;95052.22;4991866;28;20614;-80
2023/09/02 07:23:25;;;;;;;10.00;7.65;;;;;;;30.95;37.54;95054.91;4991362;28;20225;-80
2023/09/02 07:25:52;;;;;;;10.38;7.80;;;;;;;31.17;37.84;95048.63;4991793;28;20209;-80
2023/09/02 07:28:20;;;;;;;9.65;8.63;;;;;;;29.72;39.64;95060.16;4991113;28;20204;-79
2023/09/02 07:30:47;;;;;;;10.93;8.25;;;;;;;28.49;41.49;95064.78;4991679;28;20221;-80
2023/09/02 07:33:13;;;;;;;11.48;8.55;;;;;;;28.98;41.53;95058.06;4991056;28;20221;-79
2023/09/02 07:35:40;;;;;;;13.35;8.82;;;;;;;29.29;40.38;95050.09;4991841;28;20214;-79
2023/09/02 07:38:07;;;;;;;10.07;8.63;;;;;;;29.88;39.48;95048.16;4991710;28;20205;-79
2023/09/02 07:40:34;;;;;;;9.50;8.50;;;;;;;29.47;40.33;95049.66;4991380;28;20568;-79
2023/09/02 07:43:02;;;;;;;12.07;8.80;;;;;;;29.83;40.12;95043.09;4991458;28;20206;-79
2023/09/02 07:45:31;;;;;;;8.68;7.80;;;;;;;29.78;39.66;95052.03;4991485;28;20206;-80
2023/09/02 07:47:58;;;;;;;9.25;7.88;;;;;;;30.01;40.21;95049.00;4991484;28;20205;-78
2023/09/02 07:50:24;;;;;;;9.20;7.90;;;;;;;27.94;42.66;95053.19;4990977;28;20682;-79
2023/09/02 07:52:51;;;;;;;9.38;8.40;;;;;;;27.04;44.96;95049.72;4991146;28;20264;-79
2023/09/02 07:55:18;;;;;;;11.00;8.95;;;;;;;26.80;45.99;95054.44;4991023;28;20256;-79
2023/09/02 07:57:45;;;;;;;10.35;8.43;;;;;;;27.39;44.55;95050.28;4990866;28;20233;-79
2023/09/02 08:00:12;;;;;;;10.40;7.97;;;;;;;27.49;44.07;95055.66;4990941;28;20205;-79
2023/09/02 08:02:40;;;;;;;9.65;8.00;;;;;;;27.04;44.60;95062.84;4991183;28;20205;-80
2023/09/02 08:05:08;;;;;;;9.77;8.07;;;;;;;27.39;44.37;95056.63;4990985;28;20202;-80
2023/09/02 08:07:35;;;;;;;8.40;7.60;;;;;;;27.44;44.30;95058.16;4990821;28;20714;-79
2023/09/02 08:10:02;;;;;;;8.77;7.97;;;;;;;26.72;45.18;95064.09;4991243;28;20206;-79
2023/09/02 08:12:28;;;;;;;14.38;7.75;;;;;;;27.15;45.57;95057.88;4990590;28;20213;-79
2023/09/02 08:14:55;;;;;;;9.02;8.13;;;;;;;27.00;45.03;95062.09;4991062;28;20205;-77
2023/09/02 08:17:22;;;;;;;10.85;8.32;;;;;;;26.79;45.45;95068.75;4990921;28;20256;-80
2023/09/02 08:19:50;;;;;;;8.65;7.72;;;;;;;27.12;44.41;95061.50;4993931;28;20256;-78
2023/09/02 08:22:18;;;;;;;9.48;7.25;;;;;;;26.63;45.69;95061.09;4994536;28;20212;-78
2023/09/02 08:24:45;;;;;;;11.98;6.97;;;;;;;26.69;45.25;95066.94;4994508;28;20614;-77
2023/09/02 08:27:11;;;;;;;12.07;7.10;;;;;;;26.96;45.15;95064.16;4994471;28;20209;-77
2023/09/02 08:29:38;;;;;;;9.82;7.68;;;;;;;27.16;45.12;95056.66;4994293;28;20217;-79
2023/09/02 08:32:05;;;;;;;9.40;7.13;;;;;;;26.70;45.67;95063.72;4994329;28;20216;-78
2023/09/02 08:34:32;;;;;;;8.88;6.90;;;;;;;26.53;46.06;95056.44;4993917;28;20217;-79
2023/09/02 08:37:00;;;;;;;8.73;6.95;;;;;;;26.81;45.52;95055.22;4994154;28;20233;-78
2023/09/02 08:39:27;;;;;;;8.45;6.85;;;;;;;26.26;45.98;95058.41;4994049;28;20209;-80
2023/09/02 08:41:54;;;;;;;8.88;6.43;;;;;;;26.67;45.92;95056.22;4994261;28;20216;-79
2023/09/02 08:44:23;;;;;;;8.23;6.53;;;;;;;26.86;44.72;95047.19;4993686;28;20210;-80
2023/09/02 08:46:53;;;;;;;11.13;7.68;;;;;;;26.83;45.39;95050.81;4994171;28;20202;-79
2023/09/02 08:49:20;;;;;;;7.85;7.05;;;;;;;27.08;45.05;95041.28;4994310;28;20569;-77
2023/09/02 08:51:48;;;;;;;10.98;7.47;;;;;;;27.34;45.36;95042.41;4993982;28;20210;-79
2023/09/02 08:54:17;;;;;;;8.07;6.63;;;;;;;27.76;43.88;95046.41;4994168;28;20593;-77
2023/09/02 08:56:45;;;;;;;8.10;6.50;;;;;;;27.89;43.51;95050.13;4993663;28;20280;-77
2023/09/02 08:59:13;;;;;;;8.15;6.47;;;;;;;27.79;44.08;95040.78;4994303;28;20615;-78
2023/09/02 09:01:43;;;;;;;8.10;6.63;;;;;;;27.69;43.87;95046.56;4993517;28;20256;-78
2023/09/02 09:04:11;;;;;;;7.95;6.30;;;;;;;28.24;42.00;95043.06;4993972;28;20288;-79
2023/09/02 09:06:38;;;;;;;9.05;6.70;;;;;;;27.84;43.20;95036.72;4993404;28;20292;-79
2023/09/02 09:09:08;;;;;;;7.00;6.30;;;;;;;27.01;44.47;95035.88;4993680;28;20264;-80
2023/09/02 09:11:40;;;;;;;6.95;6.13;;;;;;;26.92;45.12;95033.59;4993958;28;20302;-79
2023/09/02 09:14:10;;;;;;;9.48;6.35;;;;;;;26.60;45.50;95033.34;4993202;28;20618;-78
2023/09/02 09:16:39;;;;;;;9.35;6.45;;;;;;;26.62;45.31;95037.28;4993398;28;20238;-77
2023/09/02 09:19:06;;;;;;;6.38;5.63;;;;;;;26.98;44.75;95031.16;4993656;28;20206;-78
2023/09/02 09:21:33;;;;;;;6.18;5.57;;;;;;;27.01;44.36;95030.31;4993240;28;20206;-77
2023/09/02 09:24:00;;;;;;;6.30;5.32;;;;;;;27.53;44.06;95028.53;4993550;28;20205;-77
2023/09/02 09:26:27;;;;;;;9.18;5.88;;;;;;;27.51;43.48;95030.16;4993394;28;20276;-80
2023/09/02 09:28:58;;;;;;;6.82;5.80;;;;;;;27.64;42.95;95030.34;4993368;28;20209;-79
2023/09/02 09:31:25;;;;;;;6.30;5.65;;;;;;;27.46;43.36;95031.47;4993440;28;20532;-78
2023/09/02 09:33:54;;;;;;;5.80;5.22;;;;;;;27.16;43.93;95021.28;4993274;28;20205;-78
2023/09/02 09:36:22;;;;;;;8.18;5.38;;;;;;;27.52;43.95;95018.59;4993414;28;20209;-79
2023/09/02 09:38:49;;;;;;;6.18;5.22;;;;;;;27.43;43.30;95020.41;4993183;28;20293;-77
2023/09/02 09:41:16;;;;;;;6.63;5.45;;;;;;;27.46;43.32;95016.75;4993018;28;20301;-79
2023/09/02 09:43:42;;;;;;;7.03;5.72;;;;;;;27.81;42.57;95012.50;4993170;28;20205;-78
2023/09/02 09:46:15;;;;;;;6.38;5.20;;;;;;;28.45;42.07;95003.53;4993095;28;20213;-78
2023/09/02 09:48:47;;;;;;;6.18;5.57;;;;;;;28.37;41.84;95012.50;4993187;28;20542;-79
2023/09/02 09:51:24;;;;;;;7.25;5.85;;;;;;;28.09;42.51;95000.75;4993037;28;20204;-80
2023/09/02 09:53:51;;;;;;;7.15;5.30;;;;;;;28.29;42.12;95011.91;4992875;28;20197;-77
2023/09/02 09:56:17;;;;;;;5.97;5.25;;;;;;;28.16;42.28;94997.78;4992679;28;20206;-78
2023/09/02 09:58:46;;;;;;;8.40;5.53;;;;;;;27.96;41.88;95011.00;4992920;28;20667;-78
2023/09/02 10:01:23;;;;;;;6.10;5.50;;;;;;;27.89;42.47;95011.13;4992656;28;20205;-78
2023/09/02 10:03:51;;;;;;;5.95;5.35;;;;;;;27.97;42.34;95007.00;4992765;28;20194;-79
2023/09/02 10:06:19;;;;;;;5.88;5.28;;;;;;;28.73;41.51;94993.72;4992558;28;20209;-78
2023/09/02 10:08:54;;;;;;;6.13;5.53;;;;;;;28.81;41.35;94992.34;4992457;28;20217;-79
2023/09/02 10:11:24;;;;;;;7.10;5.50;;;;;;;29.10;40.06;94994.41;4992392;28;20204;-78
2023/09/02 10:13:54;;;;;;;5.75;4.80;;;;;;;29.33;39.54;94994.97;4992370;28;20237;-78
2023/09/02 10:16:24;;;;;;;5.45;4.95;;;;;;;29.70;38.64;94990.78;4992211;28;20652;-79
2023/09/02 10:18:51;;;;;;;5.45;4.82;;;;;;;29.97;38.56;94993.22;4992609;28;20190;-80
2023/09/02 10:21:19;;;;;;;7.07;4.88;;;;;;;30.10;38.19;94987.63;4992826;28;20204;-79
2023/09/02 10:23:50;;;;;;;5.43;4.75;;;;;;;30.13;38.13;94983.97;4992486;28;20304;-80
2023/09/02 10:26:28;;;;;;;6.13;5.38;;;;;;;29.66;38.38;94978.91;4992460;28;20221;-79
2023/09/02 10:29:00;;;;;;;6.63;4.82;;;;;;;29.37;37.48;94983.72;4992388;28;20197;-79
2023/09/02 10:31:33;;;;;;;6.07;4.43;;;;;;;29.15;37.98;94986.28;4992183;28;20667;-80
2023/09/02 10:34:06;;;;;;;6.68;4.22;;;;;;;29.47;37.37;94974.28;4992734;28;20594;-78
2023/09/02 10:36:37;;;;;;;6.22;4.93;;;;;;;29.59;38.12;94973.53;4992320;28;20245;-81
2023/09/02 10:39:10;;;;;;;6.18;4.72;;;;;;;29.22;38.88;94972.16;4992476;28;20204;-77
2023/09/02 10:41:41;;;;;;;5.30;4.80;;;;;;;29.51;38.44;94969.41;4991565;28;20566;-78
2023/09/02 10:44:08;;;;;;;6.05;5.45;;;;;;;29.65;38.22;94973.78;4992805;28;20201;-79
2023/09/02 10:46:38;;;;;;;5.60;5.10;;;;;;;30.16;36.52;94966.31;4992374;28;20712;-80
2023/09/02 10:49:05;;;;;;;7.13;5.30;;;;;;;29.65;36.91;94957.81;4992241;28;20256;-80
2023/09/02 10:51:33;;;;;;;5.28;4.78;;;;;;;29.72;36.29;94975.56;4992270;28;20700;-80
2023/09/02 10:54:04;;;;;;;5.28;4.78;;;;;;;28.91;37.83;94970.97;4992412;28;20209;-80
2023/09/02 10:56:33;;;;;;;5.38;4.53;;;;;;;28.77;38.84;94971.31;4991951;28;20642;-80
2023/09/02 10:59:00;;;;;;;5.38;4.88;;;;;;;28.07;39.47;94983.69;4992178;28;20210;-77
2023/09/02 11:01:41;;;;;;;6.07;4.82;;;;;;;27.58;40.86;94985.53;4991431;28;20213;-78
2023/09/02 11:04:10;;;;;;;6.47;4.55;;;;;;;27.65;40.98;94984.59;4991977;28;20193;-77
2023/09/02 11:06:36;;;;;;;4.90;4.50;;;;;;;27.66;40.89;94980.59;4991523;28;20221;-79
2023/09/02 11:09:03;;;;;;;5.45;4.53;;;;;;;27.44;39.99;94983.00;4991624;28;20209;-79
2023/09/02 11:12:09;;;;;;;5.15;4.43;;;;;;;27.31;39.81;94970.94;4991775;28;20214;-79
2023/09/02 11:14:36;;;;;;;7.22;4.93;;;;;;;27.02;40.99;94976.25;4991517;28;20201;-78
2023/09/02 11:17:28;;;;;;;5.93;5.32;;;;;;;27.32;40.23;94973.31;4991388;28;20241;-79
2023/09/02 11:20:00;;;;;;;5.05;4.55;;;;;;;27.87;39.52;94966.25;4991898;28;20296;-80
2023/09/02 11:22:48;;;;;;;5.47;4.35;;;;;;;28.51;38.73;94962.78;4991630;28;20555;-80
2023/09/02 11:25:34;;;;;;;5.80;4.82;;;;;;;28.70;38.24;94947.16;4992022;28;20201;-80
2023/09/02 11:28:02;;;;;;;6.95;4.82;;;;;;;28.93;37.66;94955.38;4992130;28;20221;-79
2023/09/02 11:30:31;;;;;;;8.82;5.30;;;;;;;28.98;37.49;94960.41;4991319;28;20216;-79
2023/09/02 11:32:59;;;;;;;5.38;4.80;;;;;;;29.12;37.15;94952.88;4991876;28;20209;-79
2023/09/02 11:35:29;;;;;;;5.00;4.50;;;;;;;29.33;36.89;94947.53;4991547;28;20209;-78